createdAt,value
2019-05-17T00:01:12.033Z,7.80
2019-05-17T00:03:38.050Z,8.33
2019-05-17T00:06:06.481Z,8.53
2019-05-17T00:08:34.520Z,7.87
2019-05-17T00:10:57.119Z,7.43
2019-05-17T00:13:22.913Z,8.20
2019-05-17T00:15:48.917Z,7.70
2019-05-17T00:18:16.954Z,7.47
2019-05-17T00:20:40.952Z,7.53
2019-05-17T00:23:07.301Z,7.63
2019-05-17T00:25:32.993Z,6.87
2019-05-17T00:27:58.996Z,7.97
2019-05-17T00:30:26.623Z,7.67
2019-05-17T00:32:51.044Z,7.13
2019-05-17T00:35:17.898Z,7.27
2019-05-17T00:37:43.094Z,7.53
2019-05-17T00:40:09.071Z,7.10
2019-05-17T00:42:37.290Z,7.43
2019-05-17T00:45:02.487Z,8.03
2019-05-17T00:47:28.499Z,8.50
2019-05-17T00:49:56.843Z,7.87
2019-05-17T00:52:20.520Z,7.10
2019-05-17T00:54:47.249Z,7.83
2019-05-17T00:57:13.258Z,8.33
2019-05-17T00:59:39.253Z,8.20
2019-05-17T01:02:07.027Z,7.73
2019-05-17T01:04:31.384Z,8.37
2019-05-17T01:06:57.436Z,8.00
2019-05-17T01:09:23.403Z,8.30
2019-05-17T01:11:50.168Z,8.00
2019-05-17T01:14:17.599Z,8.40
2019-05-17T01:16:42.194Z,7.77
2019-05-17T01:19:08.949Z,8.07
2019-05-17T01:21:36.787Z,7.43
2019-05-17T01:24:00.999Z,7.87
2019-05-17T01:26:27.002Z,7.50
2019-05-17T01:28:53.042Z,6.93
2019-05-17T01:31:19.029Z,8.20
2019-05-17T01:33:46.927Z,8.00
2019-05-17T01:36:11.086Z,7.53
2019-05-17T01:38:37.701Z,7.53
2019-05-17T01:41:03.156Z,8.33
2019-05-17T01:43:29.164Z,7.63
2019-05-17T01:45:57.275Z,7.57
2019-05-17T01:48:21.222Z,7.87
2019-05-17T01:50:47.947Z,7.47
2019-05-17T01:53:13.910Z,7.83
2019-05-17T01:55:39.942Z,8.23
2019-05-17T01:58:07.432Z,7.13
2019-05-17T02:00:32.009Z,8.10
2019-05-17T02:02:58.006Z,8.40
2019-05-17T02:05:24.013Z,7.97
2019-05-17T02:07:50.742Z,7.20
2019-05-17T02:10:17.496Z,8.40
2019-05-17T02:12:48.700Z,8.57
2019-05-17T02:15:10.363Z,8.93
2019-05-17T02:17:37.445Z,8.10
2019-05-17T02:20:03.105Z,8.37
2019-05-17T02:22:29.080Z,8.60
2019-05-17T02:24:56.753Z,8.33
2019-05-17T02:27:21.988Z,9.10
2019-05-17T02:29:47.929Z,8.57
2019-05-17T02:32:14.637Z,9.10
2019-05-17T02:34:43.103Z,9.13
2019-05-17T02:37:06.690Z,9.23
2019-05-17T02:39:32.971Z,8.70
2019-05-17T02:42:02.551Z,8.87
2019-05-17T02:44:25.525Z,8.43
2019-05-17T02:46:53.750Z,9.77
2019-05-17T02:49:18.285Z,9.17
2019-05-17T02:51:44.283Z,9.37
2019-05-17T02:54:13.145Z,9.23
2019-05-17T02:56:36.327Z,9.07
2019-05-17T02:59:03.519Z,10.37
2019-05-17T03:01:28.383Z,9.57
2019-05-17T03:03:55.107Z,9.23
2019-05-17T03:06:22.734Z,8.77
2019-05-17T03:08:47.122Z,9.37
2019-05-17T03:11:13.694Z,9.93
2019-05-17T03:13:39.153Z,10.23
2019-05-17T03:16:05.155Z,10.23
2019-05-17T03:18:33.390Z,9.37
2019-05-17T03:20:57.215Z,9.50
2019-05-17T03:23:23.604Z,10.47
2019-05-17T03:25:52.205Z,9.33
2019-05-17T03:28:16.054Z,10.00
2019-05-17T03:30:46.632Z,9.60
2019-05-17T03:33:08.376Z,9.33
2019-05-17T03:35:37.845Z,10.30
2019-05-17T03:38:03.665Z,10.07
2019-05-17T03:40:56.542Z,9.93
2019-05-17T03:42:53.795Z,9.93
2019-05-17T03:45:22.571Z,9.70
2019-05-17T03:47:45.753Z,9.63
2019-05-17T03:50:13.469Z,9.70
2019-05-17T03:52:37.828Z,10.03
2019-05-17T03:55:04.260Z,9.97
2019-05-17T03:57:32.106Z,10.53
2019-05-17T03:59:55.860Z,9.67
2019-05-17T04:02:23.052Z,10.50
2019-05-17T04:04:47.903Z,9.93
2019-05-17T04:07:13.922Z,11.13
2019-05-17T04:09:43.457Z,10.27
2019-05-17T04:12:05.967Z,11.00
2019-05-17T04:14:33.527Z,11.00
2019-05-17T04:16:58.017Z,11.67
2019-05-17T04:19:24.027Z,12.00
2019-05-17T04:21:53.371Z,11.90
2019-05-17T04:24:16.089Z,12.30
2019-05-17T04:26:43.917Z,12.13
2019-05-17T04:29:08.125Z,12.27
2019-05-17T04:31:35.246Z,12.33
2019-05-17T04:34:02.926Z,12.73
2019-05-17T04:36:26.922Z,12.20
2019-05-17T04:38:52.934Z,13.30
2019-05-17T04:41:38.790Z,11.87
2019-05-17T04:43:44.975Z,11.33
2019-05-17T04:46:12.963Z,11.47
2019-05-17T04:48:37.775Z,12.47
2019-05-17T04:51:03.788Z,12.57
2019-05-17T04:53:32.643Z,12.50
2019-05-17T04:55:55.811Z,11.53
2019-05-17T04:58:23.222Z,12.23
2019-05-17T05:00:47.889Z,11.93
2019-05-17T05:03:13.920Z,12.03
2019-05-17T05:05:42.639Z,11.87
2019-05-17T05:08:06.714Z,13.70
2019-05-17T05:10:33.963Z,12.03
2019-05-17T05:12:58.767Z,11.43
2019-05-17T05:15:25.520Z,12.40
2019-05-17T05:17:52.710Z,12.07
2019-05-17T05:20:18.293Z,12.07
2019-05-17T05:22:45.040Z,12.53
2019-05-17T05:25:12.366Z,11.27
2019-05-17T05:27:37.803Z,11.50
2019-05-17T05:30:04.521Z,12.00
2019-05-17T05:32:31.524Z,11.27
2019-05-17T05:34:56.567Z,10.60
2019-05-17T05:37:23.193Z,11.27
2019-05-17T05:39:48.574Z,10.90
2019-05-17T05:42:14.579Z,10.87
2019-05-17T05:44:41.626Z,11.30
2019-05-17T05:47:07.357Z,10.57
2019-05-17T05:49:33.386Z,10.80
2019-05-17T05:52:01.792Z,11.17
2019-05-17T05:54:25.407Z,11.23
2019-05-17T05:56:52.488Z,10.27
2019-05-17T05:59:17.448Z,11.00
2019-05-17T06:01:44.157Z,10.80
2019-05-17T06:04:11.763Z,10.97
2019-05-17T06:06:36.225Z,11.40
2019-05-17T06:09:02.773Z,12.27
2019-05-17T06:11:28.280Z,12.87
2019-05-17T06:13:55.003Z,12.87
2019-05-17T06:16:22.795Z,12.37
2019-05-17T06:18:47.101Z,11.37
2019-05-17T06:21:13.096Z,11.83
2019-05-17T06:23:39.130Z,11.23
2019-05-17T06:26:05.122Z,12.27
2019-05-17T06:28:31.907Z,11.47
2019-05-17T06:30:57.283Z,10.80
2019-05-17T06:33:30.411Z,11.47
2019-05-17T06:35:52.378Z,11.27
2019-05-17T06:38:16.075Z,11.40
2019-05-17T06:40:42.838Z,10.23
2019-05-17T06:43:08.824Z,10.87
2019-05-17T06:45:34.855Z,10.90
2019-05-17T06:48:02.549Z,9.63
2019-05-17T06:50:27.619Z,9.73
2019-05-17T06:52:53.627Z,10.20
2019-05-17T06:55:19.640Z,10.90
2019-05-17T06:57:45.644Z,10.90
2019-05-17T07:00:18.618Z,9.17
2019-05-17T07:02:40.074Z,9.57
2019-05-17T07:05:03.747Z,9.13
2019-05-17T07:07:30.553Z,9.83
2019-05-17T07:09:55.800Z,9.53
2019-05-17T07:12:21.779Z,8.40
2019-05-17T07:14:47.778Z,8.40
2019-05-17T07:17:14.505Z,7.70
2019-05-17T07:19:41.270Z,7.13
2019-05-17T07:22:09.372Z,5.83
2019-05-17T07:24:34.022Z,5.97
2019-05-17T07:27:00.744Z,6.33
2019-05-17T07:29:29.826Z,6.10
2019-05-17T07:31:53.553Z,5.00
2019-05-17T07:34:19.931Z,5.50
2019-05-17T07:36:45.639Z,5.13
2019-05-17T07:39:11.622Z,4.87
2019-05-17T07:41:39.934Z,4.53
2019-05-17T07:44:03.724Z,4.97
2019-05-17T07:46:29.759Z,5.43
2019-05-17T07:48:56.491Z,5.60
2019-05-17T07:51:23.252Z,5.77
2019-05-17T07:53:49.984Z,5.73
2019-05-17T07:56:16.764Z,6.30
2019-05-17T07:58:42.750Z,6.20
2019-05-17T08:01:10.057Z,6.17
2019-05-17T08:03:34.816Z,6.90
2019-05-17T08:06:00.836Z,6.33
2019-05-17T08:08:30.516Z,6.13
2019-05-17T08:10:53.620Z,6.23
2019-05-17T08:13:27.409Z,6.30
2019-05-17T08:15:45.696Z,6.10
2019-05-17T08:18:11.688Z,5.93
2019-05-17T08:20:39.825Z,6.93
2019-05-17T08:23:05.268Z,6.50
2019-05-17T08:25:30.490Z,7.20
2019-05-17T08:27:55.869Z,6.37
2019-05-17T08:30:22.601Z,6.07
2019-05-17T08:32:50.448Z,6.70
2019-05-17T08:35:15.434Z,6.60
2019-05-17T08:37:42.339Z,6.10
2019-05-17T08:40:07.488Z,6.50
2019-05-17T08:42:33.449Z,5.73
2019-05-17T08:45:00.413Z,5.03
2019-05-17T08:47:26.249Z,5.30
2019-05-17T08:49:52.249Z,5.60
2019-05-17T08:52:20.036Z,5.53
2019-05-17T08:54:44.298Z,6.13
2019-05-17T08:57:10.295Z,6.00
2019-05-17T08:59:37.008Z,5.83
2019-05-17T09:02:03.032Z,5.73
2019-05-17T09:04:29.716Z,6.40
2019-05-17T09:06:55.103Z,5.77
2019-05-17T09:09:21.090Z,6.00
2019-05-17T09:11:47.085Z,5.53
2019-05-17T09:14:13.052Z,5.87
2019-05-17T09:16:40.077Z,6.33
2019-05-17T09:19:05.834Z,5.47
2019-05-17T09:21:31.840Z,5.87
2019-05-17T09:23:59.723Z,5.37
2019-05-17T09:26:23.851Z,5.97
2019-05-17T09:28:49.999Z,5.43
2019-05-17T09:31:15.876Z,5.23
2019-05-17T09:33:41.854Z,5.13
2019-05-17T09:36:10.074Z,5.27
2019-05-17T09:38:34.623Z,5.67
2019-05-17T09:41:00.614Z,5.40
2019-05-17T09:43:29.502Z,5.47
2019-05-17T09:45:54.363Z,5.50
2019-05-17T09:48:21.078Z,5.50
2019-05-17T09:50:47.054Z,4.97
2019-05-17T09:53:13.044Z,4.27
2019-05-17T09:55:39.763Z,5.13
2019-05-17T09:58:05.143Z,4.97
2019-05-17T10:00:31.132Z,4.87
2019-05-17T10:02:57.147Z,4.73
2019-05-17T10:05:23.128Z,4.43
2019-05-17T10:07:50.679Z,4.40
2019-05-17T10:10:15.934Z,4.83
2019-05-17T10:12:42.686Z,4.43
2019-05-17T10:15:10.062Z,4.87
2019-05-17T10:17:35.447Z,4.30
2019-05-17T10:20:01.414Z,4.10
2019-05-17T10:22:27.393Z,4.70
2019-05-17T10:24:54.104Z,4.17
2019-05-17T10:27:20.124Z,4.50
2019-05-17T10:29:46.882Z,4.40
2019-05-17T10:32:13.621Z,4.63
2019-05-17T10:34:40.119Z,4.27
2019-05-17T10:37:05.673Z,3.80
2019-05-17T10:39:32.389Z,3.83
2019-05-17T10:41:58.393Z,4.20
2019-05-17T10:44:24.378Z,4.23
2019-05-17T10:46:51.105Z,3.70
2019-05-17T10:49:17.076Z,3.90
2019-05-17T10:51:43.078Z,4.57
2019-05-17T10:54:09.850Z,4.13
2019-05-17T10:56:35.854Z,3.63
2019-05-17T10:59:01.903Z,4.30
2019-05-17T11:01:30.542Z,3.93
2019-05-17T11:03:55.415Z,4.77
2019-05-17T11:06:21.368Z,4.00
2019-05-17T11:08:49.949Z,4.00
2019-05-17T11:11:13.420Z,4.30
2019-05-17T11:13:39.420Z,4.30
2019-05-17T11:16:06.139Z,3.90
2019-05-17T11:18:32.141Z,4.33
2019-05-17T11:20:58.110Z,4.67
2019-05-17T11:23:24.115Z,4.00
2019-05-17T11:25:50.099Z,3.87
2019-05-17T11:28:16.111Z,4.17
2019-05-17T11:30:42.085Z,4.53
2019-05-17T11:33:08.092Z,3.77
2019-05-17T11:35:34.068Z,4.50
2019-05-17T11:38:00.072Z,4.30
2019-05-17T11:40:26.032Z,4.60
2019-05-17T11:42:52.043Z,4.23
2019-05-17T11:45:27.131Z,3.80
2019-05-17T11:47:44.050Z,3.90
2019-05-17T11:50:10.803Z,3.90
2019-05-17T11:52:36.838Z,4.17
2019-05-17T11:55:02.798Z,3.67
2019-05-17T11:57:28.804Z,3.60
2019-05-17T11:59:54.790Z,4.27
2019-05-17T12:02:21.717Z,3.87
2019-05-17T12:04:47.542Z,3.83
2019-05-17T12:07:13.498Z,4.00
2019-05-17T12:09:39.492Z,3.50
2019-05-17T12:12:06.223Z,4.30
2019-05-17T12:14:32.208Z,4.23
2019-05-17T12:16:58.162Z,3.83
2019-05-17T12:19:24.161Z,4.07
2019-05-17T12:21:50.134Z,4.53
2019-05-17T12:24:16.867Z,4.80
2019-05-17T12:26:42.842Z,4.13
2019-05-17T12:29:08.843Z,3.80
2019-05-17T12:31:34.825Z,3.47
2019-05-17T12:34:00.865Z,4.23
2019-05-17T12:36:28.246Z,4.30
2019-05-17T12:38:54.246Z,4.00
2019-05-17T12:41:20.962Z,4.23
2019-05-17T12:43:47.504Z,3.87
2019-05-17T12:46:14.246Z,4.13
2019-05-17T12:48:41.039Z,4.17
2019-05-17T12:51:07.002Z,3.73
2019-05-17T12:53:32.994Z,4.17
2019-05-17T12:55:58.984Z,3.93
2019-05-17T12:58:25.019Z,4.03
2019-05-17T13:00:51.010Z,4.00
2019-05-17T13:03:17.791Z,3.93
2019-05-17T13:05:43.775Z,3.73
2019-05-17T13:08:10.533Z,3.60
2019-05-17T13:10:36.542Z,3.90
2019-05-17T13:13:03.300Z,4.03
2019-05-17T13:15:29.283Z,4.50
2019-05-17T13:17:55.253Z,3.87
2019-05-17T13:20:21.267Z,3.60
2019-05-17T13:22:47.250Z,3.60
2019-05-17T13:25:13.266Z,3.93
2019-05-17T13:27:39.622Z,3.80
2019-05-17T13:30:06.123Z,4.27
2019-05-17T13:32:32.091Z,3.77
2019-05-17T13:34:58.830Z,5.00
2019-05-17T13:37:25.567Z,4.10
2019-05-17T13:39:52.358Z,3.73
2019-05-17T13:42:18.350Z,4.80
2019-05-17T13:44:45.083Z,4.73
2019-05-17T13:47:11.083Z,4.90
2019-05-17T13:49:37.846Z,4.47
2019-05-17T13:52:04.551Z,4.30
2019-05-17T13:54:30.564Z,4.30
2019-05-17T13:56:56.568Z,4.60
2019-05-17T13:59:22.580Z,4.57
2019-05-17T14:01:48.558Z,4.70
2019-05-17T14:04:14.564Z,5.00
2019-05-17T14:06:40.539Z,4.43
2019-05-17T14:09:06.549Z,4.97
2019-05-17T14:11:33.246Z,5.27
2019-05-17T14:13:59.259Z,5.30
2019-05-17T14:16:25.277Z,4.77
2019-05-17T14:18:51.280Z,4.47
2019-05-17T14:21:17.265Z,4.87
2019-05-17T14:23:43.225Z,5.23
2019-05-17T14:26:09.226Z,5.83
2019-05-17T14:28:35.941Z,5.83
2019-05-17T14:31:01.953Z,5.90
2019-05-17T14:33:27.938Z,5.53
2019-05-17T14:35:53.978Z,6.10
2019-05-17T14:38:20.019Z,5.77
2019-05-17T14:41:05.770Z,5.57
2019-05-17T14:43:12.103Z,5.80
2019-05-17T14:45:38.848Z,5.70
2019-05-17T14:48:04.848Z,5.87
2019-05-17T14:50:30.876Z,5.40
2019-05-17T14:52:56.842Z,5.50
2019-05-17T14:55:22.869Z,5.70
2019-05-17T14:57:48.820Z,6.20
2019-05-17T15:00:14.857Z,5.90
2019-05-17T15:02:40.828Z,6.07
2019-05-17T15:05:06.868Z,6.20
2019-05-17T15:07:32.853Z,5.90
2019-05-17T15:09:58.847Z,6.27
2019-05-17T15:12:28.272Z,7.23
2019-05-17T15:14:50.894Z,6.47
2019-05-17T15:17:16.871Z,6.40
2019-05-17T15:19:42.832Z,5.63
2019-05-17T15:22:08.840Z,6.80
2019-05-17T15:24:34.828Z,6.67
2019-05-17T15:27:05.216Z,6.23
2019-05-17T15:29:26.884Z,6.53
2019-05-17T15:31:52.910Z,6.43
2019-05-17T15:34:18.956Z,7.53
2019-05-17T15:36:44.948Z,6.07
2019-05-17T15:39:10.951Z,6.50
2019-05-17T15:41:36.984Z,6.43
2019-05-17T15:44:03.753Z,6.10
2019-05-17T15:46:29.748Z,6.27
2019-05-17T15:48:56.475Z,5.90
2019-05-17T15:51:22.494Z,6.37
2019-05-17T15:53:48.476Z,6.00
2019-05-17T15:56:14.472Z,5.63
2019-05-17T15:58:41.196Z,6.17
2019-05-17T16:01:07.951Z,6.27
2019-05-17T16:03:33.984Z,6.23
2019-05-17T16:05:59.986Z,6.63
2019-05-17T16:08:29.577Z,6.73
2019-05-17T16:10:52.749Z,5.60
2019-05-17T16:13:19.492Z,5.80
2019-05-17T16:15:46.203Z,6.10
2019-05-17T16:18:12.234Z,6.07
2019-05-17T16:20:38.229Z,5.77
2019-05-17T16:23:04.241Z,6.13
2019-05-17T16:25:30.239Z,6.23
2019-05-17T16:27:56.983Z,6.40
2019-05-17T16:30:23.711Z,5.97
2019-05-17T16:32:50.497Z,6.13
2019-05-17T16:35:16.493Z,6.50
2019-05-17T16:37:42.490Z,6.33
2019-05-17T16:40:09.216Z,6.30
2019-05-17T16:42:35.213Z,5.73
2019-05-17T16:45:01.192Z,6.03
2019-05-17T16:47:27.941Z,6.27
2019-05-17T16:49:53.922Z,6.00
2019-05-17T16:52:19.937Z,5.67
2019-05-17T16:54:45.906Z,6.13
2019-05-17T16:57:12.648Z,5.93
2019-05-17T16:59:38.629Z,6.67
2019-05-17T17:02:04.637Z,6.40
2019-05-17T17:04:30.625Z,6.80
2019-05-17T17:06:56.653Z,6.30
2019-05-17T17:09:22.644Z,6.80
2019-05-17T17:11:49.379Z,6.97
2019-05-17T17:14:16.119Z,6.43
2019-05-17T17:16:42.122Z,7.13
2019-05-17T17:19:08.124Z,6.37
2019-05-17T17:21:34.771Z,6.67
2019-05-17T17:24:00.772Z,6.57
2019-05-17T17:26:26.758Z,6.30
2019-05-17T17:28:53.559Z,7.20
2019-05-17T17:31:19.524Z,6.47
2019-05-17T17:33:46.263Z,6.80
2019-05-17T17:36:13.026Z,6.43
2019-05-17T17:38:39.802Z,6.97
2019-05-17T17:41:05.811Z,6.37
2019-05-17T17:43:31.827Z,6.07
2019-05-17T17:46:04.628Z,6.77
2019-05-17T17:48:30.643Z,6.60
2019-05-17T17:50:56.628Z,5.63
2019-05-17T17:53:23.392Z,6.43
2019-05-17T17:55:49.372Z,5.83
2019-05-17T17:58:15.401Z,6.23
2019-05-17T18:00:41.382Z,6.07
2019-05-17T18:03:07.416Z,6.23
2019-05-17T18:05:33.381Z,5.90
2019-05-17T18:08:00.171Z,5.73
2019-05-17T18:10:26.188Z,6.20
2019-05-17T18:12:52.176Z,6.30
2019-05-17T18:15:18.924Z,6.30
2019-05-17T18:17:44.928Z,6.13
2019-05-17T18:20:10.940Z,6.13
2019-05-17T18:22:36.982Z,6.07
2019-05-17T18:25:03.061Z,6.70
2019-05-17T18:27:29.072Z,6.40
2019-05-17T18:29:55.056Z,6.27
2019-05-17T18:32:21.764Z,5.87
2019-05-17T18:34:47.776Z,7.00
2019-05-17T18:37:13.768Z,6.30
2019-05-17T18:39:39.802Z,6.07
2019-05-17T18:42:05.773Z,7.10
2019-05-17T18:44:31.796Z,6.47
2019-05-17T18:46:57.804Z,6.10
2019-05-17T18:49:23.838Z,6.23
2019-05-17T18:51:49.823Z,6.63
2019-05-17T18:54:15.924Z,5.83
2019-05-17T18:56:41.901Z,6.10
2019-05-17T18:59:07.916Z,5.90
2019-05-17T19:01:33.907Z,6.27
2019-05-17T19:03:59.905Z,6.00
2019-05-17T19:06:26.905Z,5.33
2019-05-17T19:08:53.075Z,6.23
2019-05-17T19:11:19.844Z,5.77
2019-05-17T19:13:45.811Z,6.30
2019-05-17T19:16:11.800Z,6.70
2019-05-17T19:18:37.780Z,6.07
2019-05-17T19:21:04.546Z,6.27
2019-05-17T19:23:30.600Z,6.23
2019-05-17T19:25:57.376Z,6.60
2019-05-17T19:28:23.365Z,5.20
2019-05-17T19:30:49.401Z,6.40
2019-05-17T19:33:15.387Z,6.00
2019-05-17T19:35:41.420Z,5.57
2019-05-17T19:38:07.427Z,6.30
2019-05-17T19:40:33.449Z,5.77
2019-05-17T19:42:59.414Z,6.20
2019-05-17T19:45:25.422Z,6.00
2019-05-17T19:47:51.426Z,5.83
2019-05-17T19:50:17.466Z,6.40
2019-05-17T19:52:43.448Z,5.93
2019-05-17T19:55:10.190Z,5.87
2019-05-17T19:57:36.935Z,6.03
2019-05-17T20:00:03.678Z,6.03
2019-05-17T20:02:30.381Z,5.83
2019-05-17T20:04:56.363Z,5.63
2019-05-17T20:07:22.360Z,5.37
2019-05-17T20:09:49.092Z,6.00
2019-05-17T20:12:15.921Z,5.23
2019-05-17T20:14:41.940Z,5.80
2019-05-17T20:17:08.779Z,5.73
2019-05-17T20:19:34.762Z,6.60
2019-05-17T20:22:00.772Z,5.57
2019-05-17T20:24:26.776Z,5.97
2019-05-17T20:26:53.536Z,6.10
2019-05-17T20:29:19.586Z,6.10
2019-05-17T20:31:45.599Z,6.10
2019-05-17T20:34:11.598Z,5.83
2019-05-17T20:36:38.351Z,6.27
2019-05-17T20:39:04.338Z,6.63
2019-05-17T20:41:30.357Z,6.17
2019-05-17T20:43:56.369Z,6.73
2019-05-17T20:46:22.396Z,6.00
2019-05-17T20:48:48.376Z,6.23
2019-05-17T20:51:14.407Z,6.40
2019-05-17T20:53:40.382Z,6.20
2019-05-17T20:56:06.381Z,6.10
2019-05-17T20:58:32.377Z,6.67
2019-05-17T21:00:58.405Z,6.57
2019-05-17T21:03:24.387Z,5.77
2019-05-17T21:05:51.137Z,6.30
2019-05-17T21:08:17.871Z,6.50
2019-05-17T21:10:44.591Z,6.43
2019-05-17T21:13:10.611Z,6.63
2019-05-17T21:15:47.350Z,6.43
2019-05-17T21:18:02.695Z,6.63
2019-05-17T21:20:28.674Z,6.63
2019-05-17T21:22:54.696Z,6.30
2019-05-17T21:25:20.713Z,6.93
2019-05-17T21:27:46.770Z,6.17
2019-05-17T21:30:12.757Z,6.77
2019-05-17T21:32:38.776Z,6.50
2019-05-17T21:35:04.744Z,6.97
2019-05-17T21:37:31.509Z,6.73
2019-05-17T21:39:57.504Z,7.47
2019-05-17T21:42:24.279Z,6.87
2019-05-17T21:44:50.288Z,6.67
2019-05-17T21:47:16.341Z,7.20
2019-05-17T21:49:42.348Z,6.57
2019-05-17T21:52:08.393Z,6.57
2019-05-17T21:54:34.388Z,6.53
2019-05-17T21:57:00.466Z,6.60
2019-05-17T21:59:26.444Z,7.77
2019-05-17T22:01:52.463Z,7.37
2019-05-17T22:04:18.446Z,7.57
2019-05-17T22:06:44.460Z,7.00
2019-05-17T22:09:10.457Z,6.93
2019-05-17T22:11:36.462Z,7.70
2019-05-17T22:14:02.453Z,7.87
2019-05-17T22:16:29.173Z,7.60
2019-05-17T22:18:55.195Z,7.97
2019-05-17T22:21:21.187Z,8.47
2019-05-17T22:23:47.219Z,8.07
2019-05-17T22:26:13.208Z,8.00
2019-05-17T22:28:39.230Z,8.37
2019-05-17T22:31:05.255Z,7.90
2019-05-17T22:33:31.283Z,8.00
2019-05-17T22:35:57.292Z,8.37
2019-05-17T22:38:24.040Z,8.20
2019-05-17T22:40:50.762Z,8.03
2019-05-17T22:43:17.509Z,8.30
2019-05-17T22:45:44.244Z,7.93
2019-05-17T22:48:11.002Z,8.50
2019-05-17T22:50:36.977Z,8.40
2019-05-17T22:53:02.992Z,8.27
2019-05-17T22:55:29.031Z,8.00
2019-05-17T22:57:55.842Z,8.50
2019-05-17T23:00:21.981Z,8.77
2019-05-17T23:02:48.012Z,9.03
2019-05-17T23:05:13.993Z,9.37
2019-05-17T23:07:40.001Z,8.17
2019-05-17T23:10:06.725Z,8.20
2019-05-17T23:12:32.734Z,7.90
2019-05-17T23:14:58.740Z,8.37
2019-05-17T23:17:24.776Z,8.57
2019-05-17T23:19:50.738Z,9.50
2019-05-17T23:22:16.740Z,8.37
2019-05-17T23:24:42.748Z,8.30
2019-05-17T23:27:08.753Z,7.33
2019-05-17T23:29:34.749Z,8.83
2019-05-17T23:32:00.717Z,8.37
2019-05-17T23:34:26.732Z,9.13
2019-05-17T23:36:52.706Z,8.77
2019-05-17T23:39:18.719Z,8.33
2019-05-17T23:41:45.448Z,9.27
2019-05-17T23:44:11.470Z,8.73
2019-05-17T23:46:38.214Z,8.40
2019-05-17T23:49:04.229Z,9.20
2019-05-17T23:51:30.194Z,8.20
2019-05-17T23:53:56.242Z,8.70
2019-05-17T23:56:22.244Z,8.33
2019-05-17T23:58:48.312Z,8.73
